Time,TemperatureF,DewpointF,PressureIn,WindDirection,WindDirectionDegrees,WindSpeedMPH,WindSpeedGustMPH,Humidity,HourlyPrecipIn,Conditions,Clouds,dailyrainin,SoftwareType,DateUTC
2013-03-03 00:00:00,33.2,26.0,30.25,WSW,242,0.0,0.0,74,0.00,,,0.00,weatherlink.com 1.10,2013-03-03 06:00:00,
2013-03-03 00:15:00,32.5,25.0,30.25,WSW,241,0.0,0.0,74,0.00,,,0.00,weatherlink.com 1.10,2013-03-03 06:15:00,
2013-03-03 00:30:00,32.1,25.0,30.25,WSW,242,0.0,0.0,74,0.00,,,0.00,weatherlink.com 1.10,2013-03-03 06:30:00,
2013-03-03 00:45:00,31.9,25.0,30.25,WSW,241,0.0,0.0,75,0.00,,,0.00,weatherlink.com 1.10,2013-03-03 06:45:00,
2013-03-03 01:00:00,31.6,25.0,30.25,WSW,242,0.0,0.0,76,0.00,,,0.00,weatherlink.com 1.10,2013-03-03 07:00:00,
2013-03-03 01:15:00,31.4,25.0,30.25,WSW,242,0.0,1.0,76,0.00,,,0.00,weatherlink.com 1.10,2013-03-03 07:15:00,
2013-03-03 01:30:00,31.3,25.0,30.25,WSW,242,0.0,0.0,78,0.00,,,0.00,weatherlink.com 1.10,2013-03-03 07:30:00,
2013-03-03 01:45:00,31.2,25.0,30.25,WSW,253,0.0,1.0,78,0.00,,,0.00,weatherlink.com 1.10,2013-03-03 07:45:00,
2013-03-03 02:00:00,30.8,25.0,30.25,WSW,252,0.0,1.0,79,0.00,,,0.00,weatherlink.com 1.10,2013-03-03 08:00:00,
2013-03-03 02:15:00,30.6,25.0,30.25,WSW,252,0.0,0.0,79,0.00,,,0.00,weatherlink.com 1.10,2013-03-03 08:15:00,
2013-03-03 02:30:00,30.0,25.0,30.25,WSW,252,0.0,1.0,80,0.00,,,0.00,weatherlink.com 1.10,2013-03-03 08:30:00,
2013-03-03 02:45:00,29.5,24.0,30.24,WSW,252,0.0,0.0,81,0.00,,,0.00,weatherlink.com 1.10,2013-03-03 08:45:00,
2013-03-03 03:00:00,29.1,24.0,30.23,WSW,252,0.0,0.0,80,0.00,,,0.00,weatherlink.com 1.10,2013-03-03 09:00:00,
2013-03-03 03:15:00,28.8,24.0,30.23,WSW,252,0.0,0.0,82,0.00,,,0.00,weatherlink.com 1.10,2013-03-03 09:15:00,
2013-03-03 03:30:00,28.8,24.0,30.22,WSW,252,0.0,0.0,83,0.00,,,0.00,weatherlink.com 1.10,2013-03-03 09:30:00,
2013-03-03 03:45:00,28.6,24.0,30.22,WSW,252,0.0,0.0,83,0.00,,,0.00,weatherlink.com 1.10,2013-03-03 09:45:00,
2013-03-03 04:00:00,28.7,24.0,30.22,NNW,329,2.0,3.0,83,0.00,,,0.00,weatherlink.com 1.10,2013-03-03 10:00:00,
2013-03-03 04:15:00,28.7,24.0,30.22,SW,222,0.0,1.0,82,0.00,,,0.00,weatherlink.com 1.10,2013-03-03 10:15:00,
2013-03-03 04:31:00,28.6,24.0,30.21,NE,39,0.0,1.0,82,0.00,,,0.00,weatherlink.com 1.10,2013-03-03 10:31:00,
2013-03-03 04:46:00,28.3,24.0,30.21,SW,214,0.0,0.0,83,0.00,,,0.00,weatherlink.com 1.10,2013-03-03 10:46:00,
2013-03-03 05:01:00,28.2,24.0,30.21,NNW,330,0.0,2.0,84,0.00,,,0.00,weatherlink.com 1.10,2013-03-03 11:01:00,
2013-03-03 05:16:00,28.2,24.0,30.21,SW,235,0.0,1.0,84,0.00,,,0.00,weatherlink.com 1.10,2013-03-03 11:16:00,
2013-03-03 05:31:00,28.6,24.0,30.22,SSW,211,0.0,1.0,83,0.00,,,0.00,weatherlink.com 1.10,2013-03-03 11:31:00,
2013-03-03 05:46:00,28.4,24.0,30.21,SW,231,0.0,0.0,83,0.00,,,0.00,weatherlink.com 1.10,2013-03-03 11:46:00,
2013-03-03 06:01:00,28.3,24.0,30.22,NE,34,1.0,1.0,83,0.00,,,0.00,weatherlink.com 1.10,2013-03-03 12:01:00,
2013-03-03 06:16:00,28.3,24.0,30.22,WSW,240,0.0,1.0,83,0.00,,,0.00,weatherlink.com 1.10,2013-03-03 12:16:00,
2013-03-03 06:31:00,28.4,24.0,30.22,NNW,345,0.0,1.0,82,0.00,,,0.00,weatherlink.com 1.10,2013-03-03 12:31:00,
2013-03-03 06:46:00,28.1,24.0,30.22,NNW,344,0.0,0.0,83,0.00,,,0.00,weatherlink.com 1.10,2013-03-03 12:46:00,
2013-03-03 07:01:00,28.0,24.0,30.22,NNW,345,0.0,1.0,83,0.00,,,0.00,weatherlink.com 1.10,2013-03-03 13:01:00,
2013-03-03 07:16:00,28.4,24.0,30.23,NNW,336,0.0,2.0,83,0.00,,,0.00,weatherlink.com 1.10,2013-03-03 13:16:00,
2013-03-03 07:31:00,29.7,25.0,30.23,NNW,347,0.0,1.0,83,0.00,,,0.00,weatherlink.com 1.10,2013-03-03 13:31:00,
2013-03-03 07:46:00,32.1,27.0,30.22,NNW,347,0.0,0.0,81,0.00,,,0.00,weatherlink.com 1.10,2013-03-03 13:46:00,
2013-03-03 08:01:00,39.3,29.0,30.22,East,80,1.0,2.0,67,0.00,,,0.00,weatherlink.com 1.10,2013-03-03 14:01:00,
2013-03-03 08:16:00,44.8,30.0,30.23,East,97,2.0,2.0,56,0.00,,,0.00,weatherlink.com 1.10,2013-03-03 14:16:00,
2013-03-03 08:31:00,48.9,31.0,30.23,SW,217,6.0,7.0,51,0.00,,,0.00,weatherlink.com 1.10,2013-03-03 14:31:00,
2013-03-03 08:46:00,52.0,32.0,30.23,SSE,158,5.0,10.0,46,0.00,,,0.00,weatherlink.com 1.10,2013-03-03 14:46:00,
2013-03-03 09:01:00,53.8,32.0,30.23,South,179,4.0,15.0,44,0.00,,,0.00,weatherlink.com 1.10,2013-03-03 15:01:00,
2013-03-03 09:16:00,54.4,32.0,30.23,SW,216,8.0,13.0,43,0.00,,,0.00,weatherlink.com 1.10,2013-03-03 15:16:00,
2013-03-03 09:31:00,56.1,33.0,30.22,SW,222,6.0,13.0,42,0.00,,,0.00,weatherlink.com 1.10,2013-03-03 15:31:00,
2013-03-03 09:46:00,57.3,32.0,30.22,SSW,204,7.0,17.0,39,0.00,,,0.00,weatherlink.com 1.10,2013-03-03 15:46:00,
2013-03-03 10:01:00,58.1,32.0,30.21,South,172,5.0,11.0,37,0.00,,,0.00,weatherlink.com 1.10,2013-03-03 16:01:00,
2013-03-03 10:16:00,59.1,32.0,30.20,SW,236,8.0,14.0,36,0.00,,,0.00,weatherlink.com 1.10,2013-03-03 16:16:00,
2013-03-03 10:31:00,59.3,31.0,30.20,SW,227,10.0,14.0,35,0.00,,,0.00,weatherlink.com 1.10,2013-03-03 16:31:00,
2013-03-03 10:47:00,61.0,32.0,30.19,ESE,115,4.0,12.0,34,0.00,,,0.00,weatherlink.com 1.10,2013-03-03 16:47:00,
2013-03-03 11:02:00,62.7,32.0,30.18,South,170,5.0,12.0,32,0.00,,,0.00,weatherlink.com 1.10,2013-03-03 17:02:00,
2013-03-03 11:17:00,63.7,32.0,30.17,SSE,161,3.0,14.0,31,0.00,,,0.00,weatherlink.com 1.10,2013-03-03 17:17:00,
2013-03-03 11:32:00,65.9,32.0,30.16,WSW,240,6.0,15.0,28,0.00,,,0.00,weatherlink.com 1.10,2013-03-03 17:32:00,
2013-03-03 11:47:00,66.9,31.0,30.15,SW,222,6.0,14.0,26,0.00,,,0.00,weatherlink.com 1.10,2013-03-03 17:47:00,
2013-03-03 12:02:00,67.6,29.0,30.14,SW,217,10.0,18.0,24,0.00,,,0.00,weatherlink.com 1.10,2013-03-03 18:02:00,
2013-03-03 12:17:00,68.0,30.0,30.12,South,181,8.0,17.0,24,0.00,,,0.00,weatherlink.com 1.10,2013-03-03 18:17:00,
2013-03-03 12:32:00,68.5,30.0,30.11,SE,136,8.0,19.0,24,0.00,,,0.00,weatherlink.com 1.10,2013-03-03 18:32:00,
2013-03-03 12:47:00,68.8,29.0,30.10,West,274,8.0,18.0,23,0.00,,,0.00,weatherlink.com 1.10,2013-03-03 18:47:00,
2013-03-03 13:02:00,69.6,31.0,30.09,SSW,212,5.0,18.0,24,0.00,,,0.00,weatherlink.com 1.10,2013-03-03 19:02:00,
2013-03-03 13:17:00,70.3,30.0,30.08,South,184,16.0,19.0,22,0.00,,,0.00,weatherlink.com 1.10,2013-03-03 19:17:00,
2013-03-03 13:32:00,71.2,29.0,30.07,SSW,211,7.0,18.0,21,0.00,,,0.00,weatherlink.com 1.10,2013-03-03 19:32:00,
2013-03-03 13:47:00,70.5,29.0,30.06,SW,226,10.0,20.0,21,0.00,,,0.00,weatherlink.com 1.10,2013-03-03 19:47:00,
2013-03-03 14:02:00,71.4,29.0,30.05,SSW,203,9.0,19.0,21,0.00,,,0.00,weatherlink.com 1.10,2013-03-03 20:02:00,
2013-03-03 14:17:00,71.8,30.0,30.05,SW,231,10.0,21.0,21,0.00,,,0.00,weatherlink.com 1.10,2013-03-03 20:17:00,
2013-03-03 14:32:00,71.8,30.0,30.04,SSE,149,5.0,20.0,21,0.00,,,0.00,weatherlink.com 1.10,2013-03-03 20:32:00,
2013-03-03 14:47:00,72.3,30.0,30.03,SSE,149,8.0,14.0,21,0.00,,,0.00,weatherlink.com 1.10,2013-03-03 20:47:00,
2013-03-03 15:02:00,72.9,31.0,30.02,SW,233,12.0,19.0,21,0.00,,,0.00,weatherlink.com 1.10,2013-03-03 21:02:00,
2013-03-03 15:17:00,73.3,31.0,30.01,SW,217,3.0,16.0,21,0.00,,,0.00,weatherlink.com 1.10,2013-03-03 21:17:00,
2013-03-03 15:32:00,73.6,31.0,30.00,SSW,200,9.0,15.0,21,0.00,,,0.00,weatherlink.com 1.10,2013-03-03 21:32:00,
2013-03-03 15:47:00,73.8,30.0,29.99,SSW,193,13.0,21.0,20,0.00,,,0.00,weatherlink.com 1.10,2013-03-03 21:47:00,
2013-03-03 16:04:00,73.7,30.0,29.98,SSW,208,8.0,17.0,20,0.00,,,0.00,weatherlink.com 1.10,2013-03-03 22:04:00,
2013-03-03 16:18:00,74.2,31.0,29.98,SW,218,9.0,20.0,20,0.00,,,0.00,weatherlink.com 1.10,2013-03-03 22:18:00,
2013-03-03 16:33:00,73.9,32.0,29.97,SSE,160,10.0,19.0,21,0.00,,,0.00,weatherlink.com 1.10,2013-03-03 22:33:00,
2013-03-03 16:48:00,73.9,29.0,29.96,SSW,193,7.0,14.0,19,0.00,,,0.00,weatherlink.com 1.10,2013-03-03 22:48:00,
2013-03-03 17:03:00,73.2,30.0,29.96,SW,227,15.0,16.0,20,0.00,,,0.00,weatherlink.com 1.10,2013-03-03 23:03:00,
2013-03-03 17:18:00,72.8,29.0,29.95,SW,236,5.0,18.0,20,0.00,,,0.00,weatherlink.com 1.10,2013-03-03 23:18:00,
2013-03-03 17:33:00,72.8,31.0,29.95,SSW,211,8.0,22.0,21,0.00,,,0.00,weatherlink.com 1.10,2013-03-03 23:33:00,
2013-03-03 17:48:00,72.3,29.0,29.95,SW,230,6.0,15.0,20,0.00,,,0.00,weatherlink.com 1.10,2013-03-03 23:48:00,
2013-03-03 18:03:00,70.3,30.0,29.95,SW,222,6.0,14.0,22,0.00,,,0.00,weatherlink.com 1.10,2013-03-04 00:03:00,
2013-03-03 18:18:00,69.2,29.0,29.95,SSW,195,9.0,14.0,22,0.00,,,0.00,weatherlink.com 1.10,2013-03-04 00:18:00,
2013-03-03 18:33:00,68.3,28.0,29.95,SSW,193,10.0,12.0,22,0.00,,,0.00,weatherlink.com 1.10,2013-03-04 00:33:00,
2013-03-03 18:48:00,67.3,28.0,29.95,SSW,207,4.0,8.0,23,0.00,,,0.00,weatherlink.com 1.10,2013-03-04 00:48:00,
2013-03-03 19:03:00,66.7,28.0,29.94,SW,214,3.0,13.0,23,0.00,,,0.00,weatherlink.com 1.10,2013-03-04 01:03:00,
2013-03-03 19:18:00,66.1,28.0,29.94,SSW,198,5.0,9.0,24,0.00,,,0.00,weatherlink.com 1.10,2013-03-04 01:18:00,
2013-03-03 19:33:00,65.4,29.0,29.94,SSW,193,5.0,8.0,25,0.00,,,0.00,weatherlink.com 1.10,2013-03-04 01:33:00,
2013-03-03 19:48:00,65.0,28.0,29.94,SSW,204,3.0,10.0,25,0.00,,,0.00,weatherlink.com 1.10,2013-03-04 01:48:00,
2013-03-03 20:03:00,64.2,28.0,29.94,SSE,152,3.0,6.0,26,0.00,,,0.00,weatherlink.com 1.10,2013-03-04 02:03:00,
2013-03-03 20:18:00,63.3,29.0,29.95,ESE,120,3.0,5.0,27,0.00,,,0.00,weatherlink.com 1.10,2013-03-04 02:18:00,
2013-03-03 20:33:00,62.6,29.0,29.94,SE,139,3.0,6.0,28,0.00,,,0.00,weatherlink.com 1.10,2013-03-04 02:33:00,
2013-03-03 20:49:00,61.7,28.0,29.94,SE,144,8.0,8.0,28,0.00,,,0.00,weatherlink.com 1.10,2013-03-04 02:49:00,
2013-03-03 21:03:00,61.0,28.0,29.94,SSE,149,5.0,7.0,29,0.00,,,0.00,weatherlink.com 1.10,2013-03-04 03:03:00,
2013-03-03 21:18:00,60.6,29.0,29.93,SSW,202,6.0,9.0,30,0.00,,,0.00,weatherlink.com 1.10,2013-03-04 03:18:00,
2013-03-03 21:33:00,60.1,29.0,29.94,SW,219,4.0,8.0,31,0.00,,,0.00,weatherlink.com 1.10,2013-03-04 03:33:00,
2013-03-03 21:48:00,59.6,30.0,29.94,SSW,198,6.0,7.0,32,0.00,,,0.00,weatherlink.com 1.10,2013-03-04 03:48:00,
2013-03-03 22:03:00,59.0,32.0,29.94,SSW,193,5.0,9.0,36,0.00,,,0.00,weatherlink.com 1.10,2013-03-04 04:03:00,
2013-03-03 22:18:00,58.6,34.0,29.94,SW,214,8.0,11.0,40,0.00,,,0.00,weatherlink.com 1.10,2013-03-04 04:18:00,
2013-03-03 22:33:00,58.0,36.0,29.94,SW,224,4.0,8.0,44,0.00,,,0.00,weatherlink.com 1.10,2013-03-04 04:33:00,
2013-03-03 22:48:00,57.6,37.0,29.93,South,183,6.0,9.0,47,0.00,,,0.00,weatherlink.com 1.10,2013-03-04 04:48:00,
2013-03-03 23:03:00,56.9,39.0,29.93,SSW,198,2.0,9.0,51,0.00,,,0.00,weatherlink.com 1.10,2013-03-04 05:03:00,
2013-03-03 23:18:00,56.4,39.0,29.93,SSW,194,4.0,11.0,53,0.00,,,0.00,weatherlink.com 1.10,2013-03-04 05:18:00,
2013-03-03 23:33:00,56.3,40.0,29.92,South,190,5.0,9.0,54,0.00,,,0.00,weatherlink.com 1.10,2013-03-04 05:33:00,
2013-03-03 23:48:00,56.1,39.0,29.92,South,169,4.0,9.0,54,0.00,,,0.00,weatherlink.com 1.10,2013-03-04 05:48:00,